Time;durP1;ratioP1;P1;durP2;ratioP2;P2;SDS_P1;SDS_P2;PMS_P1;PMS_P2;Temp;Humidity;BMP_temperature;BMP_pressure;BME280_temperature;BME280_humidity;BME280_pressure;Samples;Min_cycle;Max_cycle;Signal;HPM_P1;HPM_P2
2023/02/17 00:00:57;;;;;;;11.20;4.40;;;;;;;1.76;60.82;100548.46;105443;1259;72478;-57
2023/02/17 00:03:24;;;;;;;9.10;3.40;;;;;;;1.71;60.94;100544.69;105377;1254;60434;-57
2023/02/17 00:05:50;;;;;;;11.70;4.50;;;;;;;1.65;61.12;100541.28;105204;1254;61313;-57
2023/02/17 00:08:19;;;;;;;10.30;4.70;;;;;;;1.61;61.28;100538.35;105498;1259;74561;-57
2023/02/17 00:10:57;;;;;;;12.50;4.60;;;;;;;1.57;61.60;100540.91;105190;1254;71281;-57
2023/02/17 00:13:24;;;;;;;11.60;5.70;;;;;;;1.54;61.62;100545.17;105187;1254;65072;-57
2023/02/17 00:15:51;;;;;;;13.50;5.60;;;;;;;1.50;61.63;100544.29;105333;1254;60458;-56
2023/02/17 00:18:18;;;;;;;12.90;5.20;;;;;;;1.47;61.69;100542.48;105844;1256;61290;-57
2023/02/17 00:20:45;;;;;;;10.70;4.90;;;;;;;1.48;61.88;100541.10;105645;1256;74846;-57
2023/02/17 00:23:12;;;;;;;13.40;5.60;;;;;;;1.50;61.81;100541.19;105250;1254;71092;-56
2023/02/17 00:25:40;;;;;;;10.30;4.50;;;;;;;1.50;61.91;100534.63;105052;1254;305796;-57
2023/02/17 00:30:22;;;;;;;17.20;6.00;;;;;;;1.38;62.43;100526.11;102428;1293;600782;-56
2023/02/17 00:32:54;;;;;;;12.90;5.40;;;;;;;1.52;62.10;100522.98;104628;1269;59254;-56
2023/02/17 00:35:22;;;;;;;10.80;4.20;;;;;;;1.54;62.03;100518.75;104712;1268;61292;-56
2023/02/17 00:37:51;;;;;;;12.40;5.50;;;;;;;1.53;62.04;100510.64;104780;1266;73397;-57
2023/02/17 00:40:19;;;;;;;13.80;4.50;;;;;;;1.52;61.99;100512.42;104663;1265;71041;-56
2023/02/17 00:42:47;;;;;;;10.70;4.40;;;;;;;1.54;61.99;100505.59;104802;1269;186051;-57
2023/02/17 00:45:16;;;;;;;16.10;5.00;;;;;;;1.61;61.75;100501.14;104836;1264;62210;-57
2023/02/17 00:47:46;;;;;;;9.30;4.70;;;;;;;1.66;61.68;100501.10;105170;1262;60370;-56
2023/02/17 00:50:17;;;;;;;10.10;3.60;;;;;;;1.71;61.56;100497.28;104887;1266;73184;-57
2023/02/17 00:52:45;;;;;;;10.40;4.00;;;;;;;1.75;61.63;100494.33;104922;1264;71065;-56
2023/02/17 00:55:14;;;;;;;15.50;6.30;;;;;;;1.77;61.75;100492.88;104808;1267;73313;-57
2023/02/17 00:57:42;;;;;;;11.90;4.50;;;;;;;1.79;62.05;100495.39;104790;1264;60527;-57
2023/02/17 01:00:11;;;;;;;9.30;4.40;;;;;;;1.83;62.20;100503.02;104777;1264;61589;-57
2023/02/17 01:02:39;;;;;;;12.20;7.40;;;;;;;1.85;62.18;100504.51;105009;1266;74582;-56
2023/02/17 01:05:08;;;;;;;10.90;5.30;;;;;;;1.85;61.98;100497.58;104879;1266;71350;-53
2023/02/17 01:07:37;;;;;;;10.50;4.80;;;;;;;1.84;61.97;100495.20;104571;1264;72574;-53
2023/02/17 01:10:07;;;;;;;9.40;5.70;;;;;;;1.84;61.91;100495.36;105019;1257;59322;-54
2023/02/17 01:12:37;;;;;;;15.40;6.30;;;;;;;1.83;61.91;100491.77;104884;1257;61387;-56
2023/02/17 01:15:06;;;;;;;12.20;6.30;;;;;;;1.83;61.89;100490.39;105140;1263;74013;-58
2023/02/17 01:17:37;;;;;;;12.00;5.00;;;;;;;1.82;61.98;100488.16;105165;1263;70412;-55
2023/02/17 01:20:06;;;;;;;12.60;5.50;;;;;;;1.81;61.95;100480.41;105515;1260;73923;-56
2023/02/17 01:22:37;;;;;;;16.10;6.40;;;;;;;1.80;62.06;100480.14;104940;1260;59875;-56
2023/02/17 01:25:05;;;;;;;9.90;5.20;;;;;;;1.77;61.98;100479.58;105204;1270;61291;-56
2023/02/17 01:27:34;;;;;;;11.90;6.50;;;;;;;1.78;62.21;100478.33;105107;1264;73995;-54
2023/02/17 01:30:03;;;;;;;10.10;5.20;;;;;;;1.79;62.31;100476.86;104852;1263;71047;-55
2023/02/17 01:32:31;;;;;;;11.20;5.50;;;;;;;1.79;62.39;100476.71;105356;1263;72378;-55
2023/02/17 01:35:00;;;;;;;13.20;5.00;;;;;;;1.78;62.44;100477.98;105459;1263;59756;-55
2023/02/17 01:37:28;;;;;;;11.20;5.60;;;;;;;1.76;62.48;100473.05;105013;1264;61541;-55
2023/02/17 01:39:56;;;;;;;10.20;6.20;;;;;;;1.75;62.61;100470.83;105483;1263;74057;-56
2023/02/17 01:42:25;;;;;;;11.80;4.10;;;;;;;1.81;62.65;100468.88;105188;1257;71167;-56
2023/02/17 01:45:15;;;;;;;11.80;4.50;;;;;;;1.91;62.55;100466.00;105161;1263;73470;-56
2023/02/17 01:47:52;;;;;;;9.10;3.30;;;;;;;2.03;62.59;100464.63;104723;1258;59617;-56
2023/02/17 01:50:23;;;;;;;11.30;4.20;;;;;;;2.15;62.43;100459.10;104880;1259;59735;-56
2023/02/17 01:52:51;;;;;;;11.30;3.90;;;;;;;2.24;62.48;100461.11;104939;1265;65303;-56
2023/02/17 01:55:19;;;;;;;11.40;6.40;;;;;;;2.30;62.51;100463.27;104926;1257;71026;-56
2023/02/17 01:57:48;;;;;;;12.80;6.20;;;;;;;2.31;62.34;100464.77;104863;1264;74225;-56
2023/02/17 02:00:16;;;;;;;10.20;3.80;;;;;;;2.28;62.19;100464.05;105020;1261;60432;-56
2023/02/17 02:02:46;;;;;;;11.20;5.50;;;;;;;2.26;62.27;100460.02;105768;1260;59992;-56
2023/02/17 02:05:15;;;;;;;12.00;4.70;;;;;;;2.23;62.06;100462.91;104813;1261;72064;-55
2023/02/17 02:07:45;;;;;;;13.70;5.70;;;;;;;2.18;62.15;100466.90;105219;1260;64873;-54
2023/02/17 02:10:13;;;;;;;14.00;5.50;;;;;;;2.15;62.26;100467.77;104984;1263;73994;-56
2023/02/17 02:12:43;;;;;;;13.20;6.20;;;;;;;2.14;62.32;100468.82;105361;1257;59707;-56
2023/02/17 02:15:20;;;;;;;12.00;5.00;;;;;;;2.15;62.40;100471.05;105208;1254;59717;-57
2023/02/17 02:18:00;;;;;;;15.60;6.50;;;;;;;2.12;62.28;100471.49;105133;1260;66267;-57
2023/02/17 02:20:43;;;;;;;13.60;5.20;;;;;;;2.10;62.27;100472.28;105258;1254;62578;-55
2023/02/17 02:23:34;;;;;;;11.60;5.60;;;;;;;2.10;62.46;100474.19;105491;1261;64894;-57
2023/02/17 02:26:39;;;;;;;18.50;7.10;;;;;;;2.09;62.36;100466.44;105322;1255;60674;-55
2023/02/17 02:29:15;;;;;;;15.50;6.10;;;;;;;2.07;62.29;100462.04;105476;1254;59727;-55
2023/02/17 02:31:46;;;;;;;12.90;6.40;;;;;;;2.06;62.16;100458.43;105426;1259;65396;-57
2023/02/17 02:34:30;;;;;;;15.30;6.40;;;;;;;2.07;62.13;100459.45;105322;1257;61615;-55
2023/02/17 02:37:01;;;;;;;21.60;8.50;;;;;;;2.08;62.28;100457.84;105509;1257;64792;-55
2023/02/17 02:39:34;;;;;;;14.60;7.30;;;;;;;2.08;62.20;100456.64;105339;1260;59749;-55
2023/02/17 02:42:05;;;;;;;16.60;6.70;;;;;;;2.06;61.98;100453.08;106513;1254;59519;-55
2023/02/17 02:44:33;;;;;;;18.70;8.80;;;;;;;2.04;62.06;100455.77;105533;1260;72970;-56
2023/02/17 02:47:04;;;;;;;17.70;9.10;;;;;;;2.02;61.97;100454.65;105193;1254;62383;-56
2023/02/17 02:49:34;;;;;;;14.90;7.00;;;;;;;2.00;62.10;100456.98;105314;1260;65348;-56
2023/02/17 02:52:05;;;;;;;18.00;6.60;;;;;;;2.05;61.84;100460.72;105238;1254;61961;-55
2023/02/17 02:54:45;;;;;;;17.00;7.00;;;;;;;2.15;61.91;100462.38;105362;1254;59580;-55
2023/02/17 02:57:27;;;;;;;16.80;6.50;;;;;;;2.26;61.79;100461.04;105306;1260;65353;-55
2023/02/17 03:00:17;;;;;;;11.80;5.50;;;;;;;2.37;61.61;100461.25;105178;1254;62882;-55
2023/02/17 03:02:51;;;;;;;15.00;6.40;;;;;;;2.46;61.48;100465.16;105247;1254;65010;-54
2023/02/17 03:05:29;;;;;;;18.80;9.00;;;;;;;2.51;61.57;100469.96;105811;1254;59561;-56
2023/02/17 03:08:45;;;;;;;30.90;20.90;;;;;;;2.52;61.39;100468.55;105810;1254;59815;-55
2023/02/17 03:11:13;;;;;;;17.00;8.90;;;;;;;2.50;61.43;100472.43;105377;1254;65427;-56
2023/02/17 03:13:42;;;;;;;18.50;8.90;;;;;;;2.46;61.49;100473.98;105549;1251;62663;-56
2023/02/17 03:16:13;;;;;;;17.20;9.80;;;;;;;2.45;61.58;100475.41;105500;1254;73479;-56
2023/02/17 03:18:42;;;;;;;16.40;8.00;;;;;;;2.46;61.65;100476.44;106242;1254;59907;-57
2023/02/17 03:21:13;;;;;;;19.80;7.90;;;;;;;2.42;61.58;100474.86;105573;1251;60352;-55
2023/02/17 03:23:42;;;;;;;17.70;9.50;;;;;;;2.39;61.67;100474.67;105922;1256;65463;-56
2023/02/17 03:26:10;;;;;;;19.00;9.10;;;;;;;2.36;61.79;100471.84;105912;1250;70242;-56
2023/02/17 03:28:39;;;;;;;13.80;7.30;;;;;;;2.33;61.85;100474.56;105572;1256;73835;-56
2023/02/17 03:31:07;;;;;;;16.40;7.90;;;;;;;2.31;62.07;100477.61;105489;1251;59656;-54
2023/02/17 03:33:35;;;;;;;14.50;7.20;;;;;;;2.29;62.21;100477.01;105450;1254;61077;-55
2023/02/17 03:36:04;;;;;;;14.50;8.50;;;;;;;2.26;62.36;100473.33;105466;1255;74082;-57
2023/02/17 03:38:33;;;;;;;14.40;7.60;;;;;;;2.22;62.66;100468.80;105583;1251;71287;-56
2023/02/17 03:41:01;;;;;;;14.10;5.70;;;;;;;2.23;62.86;100472.94;105513;1254;73705;-55
2023/02/17 03:43:30;;;;;;;16.10;7.90;;;;;;;2.21;63.22;100470.60;105526;1254;60609;-55
2023/02/17 03:45:58;;;;;;;19.20;7.80;;;;;;;2.19;63.43;100473.96;105480;1251;61570;-55
2023/02/17 03:48:27;;;;;;;14.80;5.10;;;;;;;2.26;63.51;100469.69;106133;1251;74482;-56
2023/02/17 03:50:55;;;;;;;14.80;7.00;;;;;;;2.36;63.53;100464.75;105622;1254;62591;-56
2023/02/17 03:53:23;;;;;;;18.70;6.70;;;;;;;2.48;63.43;100466.80;105468;1254;63678;-57
2023/02/17 03:55:51;;;;;;;20.50;8.70;;;;;;;2.62;63.43;100472.78;105571;1251;61936;-56
2023/02/17 03:58:19;;;;;;;24.10;9.60;;;;;;;2.72;63.27;100471.10;105554;1253;59630;-56
2023/02/17 04:00:47;;;;;;;23.00;12.10;;;;;;;2.78;63.20;100469.95;105496;1254;64046;-55
2023/02/17 04:03:16;;;;;;;21.40;11.60;;;;;;;2.82;63.14;100471.34;105496;1251;62729;-56
2023/02/17 04:05:45;;;;;;;27.00;11.30;;;;;;;2.83;63.23;100468.48;105594;1250;65097;-55
2023/02/17 04:08:13;;;;;;;19.10;9.90;;;;;;;2.84;63.30;100472.27;105789;1250;59526;-55
2023/02/17 04:10:41;;;;;;;21.60;8.80;;;;;;;2.84;63.33;100471.77;105420;1251;59724;-53
2023/02/17 04:13:10;;;;;;;17.20;9.60;;;;;;;2.86;63.35;100474.25;105503;1254;73705;-53
2023/02/17 04:15:43;;;;;;;19.20;10.50;;;;;;;2.90;63.38;100471.11;105537;1251;62220;-53
2023/02/17 04:18:11;;;;;;;18.00;7.80;;;;;;;2.90;63.31;100471.11;105554;1254;64020;-55
2023/02/17 04:20:39;;;;;;;15.50;7.00;;;;;;;2.87;63.29;100474.38;105595;1254;59744;-54
2023/02/17 04:23:08;;;;;;;18.30;9.70;;;;;;;2.84;63.56;100473.65;105660;1253;61498;-55
2023/02/17 04:25:37;;;;;;;26.10;20.40;;;;;;;2.84;63.63;100476.43;106374;1251;64084;-55
2023/02/17 04:28:05;;;;;;;18.50;8.10;;;;;;;2.85;63.56;100477.24;105580;1255;62701;-54
2023/02/17 04:30:34;;;;;;;16.10;7.30;;;;;;;2.93;63.48;100480.33;105586;1250;64720;-54
2023/02/17 04:33:03;;;;;;;18.10;7.60;;;;;;;3.02;63.39;100483.23;105701;1251;59676;-55
2023/02/17 04:35:32;;;;;;;14.30;6.70;;;;;;;3.06;63.35;100479.40;105828;1251;59759;-55
2023/02/17 04:38:01;;;;;;;18.00;8.60;;;;;;;3.07;63.39;100477.59;105643;1254;65607;-55
2023/02/17 04:40:30;;;;;;;16.10;8.90;;;;;;;3.09;63.35;100473.86;105664;1250;62680;-54
2023/02/17 04:43:00;;;;;;;32.10;20.10;;;;;;;3.08;63.52;100477.56;105714;1251;65220;-55
2023/02/17 04:45:28;;;;;;;25.70;9.60;;;;;;;3.08;63.65;100476.16;105580;1251;60364;-57
2023/02/17 04:47:57;;;;;;;18.70;8.90;;;;;;;3.08;63.66;100483.65;105971;1251;60543;-56
2023/02/17 04:50:28;;;;;;;34.90;21.00;;;;;;;3.05;63.64;100486.55;105638;1254;66155;-55
2023/02/17 04:52:57;;;;;;;26.10;9.40;;;;;;;3.06;63.86;100488.59;105631;1251;62483;-56
2023/02/17 04:55:26;;;;;;;24.60;11.20;;;;;;;3.10;63.86;100488.39;105694;1251;72606;-55
2023/02/17 04:57:54;;;;;;;20.50;9.00;;;;;;;3.13;63.77;100484.94;105874;1251;60920;-56
2023/02/17 05:00:22;;;;;;;20.20;9.60;;;;;;;3.14;63.82;100482.29;105479;1250;60457;-56
2023/02/17 05:02:50;;;;;;;28.30;18.00;;;;;;;3.13;63.63;100485.47;105567;1254;74527;-56
2023/02/17 05:05:19;;;;;;;19.30;8.70;;;;;;;3.10;63.56;100484.73;105482;1251;63002;-56
2023/02/17 05:07:48;;;;;;;12.90;6.00;;;;;;;3.15;63.47;100490.24;105589;1250;65243;-56
2023/02/17 05:10:17;;;;;;;15.60;6.80;;;;;;;3.21;63.35;100490.48;105397;1251;60526;-57
2023/02/17 05:12:45;;;;;;;18.40;8.30;;;;;;;3.27;63.40;100492.27;105435;1254;60415;-53
2023/02/17 05:15:19;;;;;;;22.30;16.70;;;;;;;3.31;63.35;100499.50;105516;1254;66046;-53
2023/02/17 05:17:48;;;;;;;17.40;8.80;;;;;;;3.32;63.31;100503.30;105701;1250;62638;-54
2023/02/17 05:20:17;;;;;;;15.10;6.50;;;;;;;3.30;63.29;100504.23;105520;1253;64621;-54
2023/02/17 05:22:45;;;;;;;15.90;8.30;;;;;;;3.27;63.08;100502.34;105709;1251;60647;-54
2023/02/17 05:25:13;;;;;;;15.20;9.30;;;;;;;3.22;63.01;100499.78;105555;1249;60482;-54
2023/02/17 05:27:44;;;;;;;19.10;9.40;;;;;;;3.19;63.00;100505.66;105414;1253;66413;-56
2023/02/17 05:30:12;;;;;;;18.70;9.00;;;;;;;3.15;62.93;100505.13;105610;1251;62729;-58
2023/02/17 05:32:41;;;;;;;20.30;10.10;;;;;;;3.12;62.92;100507.73;105702;1251;64972;-55
2023/02/17 05:35:09;;;;;;;22.40;11.20;;;;;;;3.07;62.88;100510.89;105698;1251;60476;-55
2023/02/17 05:37:38;;;;;;;23.30;11.80;;;;;;;3.01;62.86;100512.89;105587;1254;60381;-55
2023/02/17 05:40:07;;;;;;;32.30;22.00;;;;;;;2.94;62.89;100517.21;105572;1251;66372;-54
2023/02/17 05:42:35;;;;;;;16.00;8.30;;;;;;;2.87;62.95;100518.90;105479;1254;61461;-54
2023/02/17 05:45:03;;;;;;;16.60;7.30;;;;;;;2.87;63.03;100519.09;105797;1251;73436;-54
2023/02/17 05:47:34;;;;;;;21.20;10.10;;;;;;;2.93;63.04;100521.23;105818;1252;60475;-55
2023/02/17 05:50:02;;;;;;;15.60;7.60;;;;;;;2.99;63.01;100527.73;105767;1250;60556;-54
2023/02/17 05:52:30;;;;;;;36.10;20.30;;;;;;;3.02;62.81;100532.25;105646;1251;64876;-54
2023/02/17 05:54:59;;;;;;;24.30;10.10;;;;;;;3.02;62.77;100533.48;105827;1251;62817;-51
2023/02/17 05:57:27;;;;;;;20.30;9.80;;;;;;;3.01;62.78;100537.85;105688;1250;64975;-52
2023/02/17 05:59:55;;;;;;;30.30;21.60;;;;;;;3.01;62.72;100533.71;105573;1251;60487;-53
2023/02/17 06:02:24;;;;;;;19.60;8.90;;;;;;;2.99;62.57;100538.31;105822;1251;63373;-53
2023/02/17 06:04:53;;;;;;;24.50;9.80;;;;;;;2.93;62.55;100543.23;105571;1250;66194;-54
2023/02/17 06:07:21;;;;;;;18.00;9.60;;;;;;;2.87;62.51;100545.05;105521;1251;71977;-55
2023/02/17 06:09:54;;;;;;;22.00;10.20;;;;;;;2.85;62.65;100543.79;105684;1252;65322;-56
2023/02/17 06:12:22;;;;;;;20.70;9.10;;;;;;;2.84;62.65;100542.45;106077;1251;60629;-55
2023/02/17 06:14:51;;;;;;;19.60;11.20;;;;;;;2.85;62.52;100548.48;105555;1251;61316;-55
2023/02/17 06:17:24;;;;;;;25.00;9.90;;;;;;;2.83;62.16;100553.41;105581;1254;66198;-55
2023/02/17 06:19:53;;;;;;;34.60;22.80;;;;;;;2.81;62.08;100552.46;105953;1252;61861;-55
2023/02/17 06:22:22;;;;;;;25.30;9.70;;;;;;;2.79;61.99;100561.01;105670;1250;74021;-55
2023/02/17 06:24:51;;;;;;;16.90;8.90;;;;;;;2.84;61.96;100563.05;105696;1253;61918;-54
2023/02/17 06:27:19;;;;;;;21.50;8.60;;;;;;;2.89;61.87;100563.89;105585;1251;61337;-54
2023/02/17 06:29:50;;;;;;;19.50;7.80;;;;;;;2.94;61.83;100564.52;105604;1251;73838;-55
2023/02/17 06:32:19;;;;;;;25.80;10.60;;;;;;;3.02;61.88;100568.46;105407;1253;71008;-55
2023/02/17 06:34:50;;;;;;;37.70;22.40;;;;;;;3.07;61.86;100571.05;105592;1254;64949;-54
2023/02/17 06:37:18;;;;;;;17.00;8.60;;;;;;;3.10;61.83;100572.30;105567;1250;60530;-55
2023/02/17 06:39:46;;;;;;;21.20;9.30;;;;;;;3.12;61.78;100578.59;105480;1251;60530;-55
2023/02/17 06:42:15;;;;;;;23.20;10.80;;;;;;;3.12;61.73;100585.02;106277;1253;66172;-55
2023/02/17 06:44:47;;;;;;;26.10;11.70;;;;;;;3.09;61.78;100586.86;105550;1250;62333;-55
2023/02/17 06:47:15;;;;;;;19.80;12.50;;;;;;;3.06;61.77;100587.20;105687;1256;74208;-54
2023/02/17 06:49:43;;;;;;;19.10;9.60;;;;;;;3.01;61.88;100589.18;105621;1250;60462;-56
2023/02/17 06:52:11;;;;;;;15.70;10.50;;;;;;;2.96;62.06;100594.08;105636;1250;60434;-54
2023/02/17 06:54:40;;;;;;;17.30;9.40;;;;;;;2.93;62.29;100597.84;105585;1254;74549;-55
2023/02/17 06:57:08;;;;;;;20.00;10.00;;;;;;;2.89;62.36;100595.42;105523;1250;71174;-55
2023/02/17 06:59:36;;;;;;;18.80;10.90;;;;;;;2.84;62.50;100596.35;105495;1250;73605;-54
2023/02/17 07:02:05;;;;;;;23.00;9.40;;;;;;;2.88;62.56;100597.37;105741;1253;61040;-54
2023/02/17 07:04:33;;;;;;;28.90;18.30;;;;;;;2.96;62.48;100599.60;105653;1250;61090;-54
2023/02/17 07:07:01;;;;;;;14.80;7.70;;;;;;;3.03;62.45;100603.44;106546;1250;66231;-56
2023/02/17 07:09:31;;;;;;;19.60;7.80;;;;;;;3.06;62.47;100602.95;105617;1251;70316;-54
2023/02/17 07:12:01;;;;;;;21.30;10.80;;;;;;;3.07;62.50;100604.80;105576;1251;64905;-55
2023/02/17 07:14:31;;;;;;;20.30;7.90;;;;;;;3.10;62.59;100602.27;105825;1250;60671;-55
2023/02/17 07:16:59;;;;;;;16.10;7.70;;;;;;;3.11;62.63;100604.96;105579;1254;60310;-56
2023/02/17 07:19:33;;;;;;;29.30;18.50;;;;;;;3.13;62.55;100604.90;105528;1254;66320;-55
2023/02/17 07:22:02;;;;;;;26.20;10.90;;;;;;;3.16;62.60;100607.02;105631;1254;70215;-55
2023/02/17 07:24:30;;;;;;;24.40;12.50;;;;;;;3.14;62.49;100608.33;105580;1251;64954;-55
2023/02/17 07:26:59;;;;;;;20.90;11.50;;;;;;;3.10;62.44;100609.70;105524;1250;60507;-55
2023/02/17 07:29:28;;;;;;;24.00;12.30;;;;;;;3.08;62.53;100608.60;106100;1250;60524;-54
2023/02/17 07:31:56;;;;;;;20.50;10.70;;;;;;;3.07;62.58;100607.27;105678;1254;75724;-56
2023/02/17 07:34:24;;;;;;;20.70;11.20;;;;;;;3.06;62.63;100611.80;105573;1250;62811;-57
2023/02/17 07:36:53;;;;;;;23.80;10.40;;;;;;;3.07;62.59;100614.02;105772;1251;73841;-55
2023/02/17 07:39:21;;;;;;;20.00;9.00;;;;;;;3.12;62.48;100616.55;105745;1251;62187;-54
2023/02/17 07:41:50;;;;;;;17.50;8.00;;;;;;;3.22;62.29;100613.86;105601;1250;60463;-54
2023/02/17 07:44:19;;;;;;;26.90;17.50;;;;;;;3.31;62.09;100614.48;105567;1254;65887;-55
2023/02/17 07:46:47;;;;;;;15.00;8.80;;;;;;;3.38;62.01;100614.35;105487;1251;71419;-55
2023/02/17 07:49:16;;;;;;;16.80;7.70;;;;;;;3.42;62.09;100617.96;105752;1250;73522;-55
2023/02/17 07:51:44;;;;;;;21.60;9.60;;;;;;;3.46;62.03;100620.19;105303;1249;60533;-55
2023/02/17 07:54:13;;;;;;;28.90;19.00;;;;;;;3.49;61.81;100618.51;105693;1254;60526;-56
2023/02/17 07:56:41;;;;;;;13.80;7.00;;;;;;;3.49;61.79;100619.55;105334;1251;73918;-55
2023/02/17 07:59:10;;;;;;;17.20;9.70;;;;;;;3.48;61.74;100621.16;105934;1251;62649;-56
2023/02/17 08:01:38;;;;;;;17.80;9.00;;;;;;;3.47;61.88;100625.90;105625;1250;64796;-57
2023/02/17 08:04:06;;;;;;;17.00;7.60;;;;;;;3.47;62.01;100626.77;105558;1250;60428;-56
2023/02/17 08:06:36;;;;;;;14.80;7.40;;;;;;;3.47;61.90;100629.00;105516;1250;60347;-56
2023/02/17 08:14:38;;;;;;;16.10;7.90;;;;;;;3.38;61.80;100641.92;105392;1251;65198;-56
2023/02/17 08:17:07;;;;;;;18.40;7.60;;;;;;;3.35;61.94;100643.40;105751;1251;60539;-56
2023/02/17 08:19:36;;;;;;;13.50;7.00;;;;;;;3.35;61.84;100642.39;105658;1251;61020;-55
2023/02/17 08:22:18;;;;;;;14.10;6.10;;;;;;;3.35;61.69;100641.54;105602;1253;66194;-54
2023/02/17 08:24:48;;;;;;;11.00;5.30;;;;;;;3.40;61.48;100645.80;105893;1251;71316;-71
2023/02/17 08:27:16;;;;;;;12.70;5.60;;;;;;;3.48;61.47;100646.48;106230;1250;64880;-67
2023/02/17 08:29:44;;;;;;;20.50;12.00;;;;;;;3.59;61.31;100651.35;106243;1250;60448;-66
2023/02/17 08:32:13;;;;;;;11.30;5.00;;;;;;;3.67;61.19;100654.27;106283;1250;61368;-67
2023/02/17 08:34:43;;;;;;;19.00;13.00;;;;;;;3.69;60.91;100657.81;105518;1251;65078;-68
2023/02/17 08:37:12;;;;;;;11.50;5.20;;;;;;;3.68;60.74;100656.11;105854;1251;63033;-66
2023/02/17 08:39:40;;;;;;;22.10;8.20;;;;;;;3.64;60.69;100660.83;105681;1250;73604;-68
2023/02/17 08:42:09;;;;;;;18.90;14.10;;;;;;;3.58;60.81;100656.27;106302;1250;60332;-67
2023/02/17 08:44:37;;;;;;;18.50;8.90;;;;;;;3.53;60.83;100653.71;106320;1253;60451;-62
2023/02/17 08:47:05;;;;;;;15.80;6.90;;;;;;;3.48;60.75;100656.36;105739;1253;73827;-61
2023/02/17 08:49:38;;;;;;;11.80;6.30;;;;;;;3.45;60.87;100662.58;105985;1250;61616;-62
2023/02/17 08:52:07;;;;;;;13.50;7.10;;;;;;;3.42;61.08;100663.06;105717;1257;73777;-61
2023/02/17 08:54:36;;;;;;;14.70;6.70;;;;;;;3.40;61.01;100667.13;105639;1251;60591;-62
2023/02/17 08:57:05;;;;;;;14.30;6.70;;;;;;;3.38;60.94;100667.23;105478;1250;60958;-61
2023/02/17 08:59:33;;;;;;;13.90;6.10;;;;;;;3.43;60.97;100669.46;105740;1253;74904;-61
2023/02/17 09:02:02;;;;;;;20.90;14.20;;;;;;;3.49;60.91;100671.58;105503;1250;71409;-61
2023/02/17 09:04:31;;;;;;;17.70;7.50;;;;;;;3.50;60.95;100674.11;105584;1254;72618;-61
2023/02/17 09:06:59;;;;;;;14.80;7.40;;;;;;;3.52;61.01;100670.89;106024;1250;60709;-61
2023/02/17 09:09:28;;;;;;;13.70;7.90;;;;;;;3.57;60.91;100674.19;105729;1250;60608;-61
2023/02/17 09:11:56;;;;;;;15.10;5.50;;;;;;;3.59;60.85;100666.95;105504;1253;74856;-62
2023/02/17 09:14:26;;;;;;;15.40;7.00;;;;;;;3.62;60.81;100667.35;106115;1249;71097;-59
2023/02/17 09:16:55;;;;;;;14.50;8.50;;;;;;;3.62;60.65;100664.41;105791;1251;73640;-62
2023/02/17 09:19:24;;;;;;;11.30;6.40;;;;;;;3.59;60.69;100669.23;105839;1250;60575;-59
2023/02/17 09:21:53;;;;;;;13.30;6.50;;;;;;;3.55;60.71;100672.02;105639;1250;61807;-59
2023/02/17 09:24:23;;;;;;;13.90;7.00;;;;;;;3.51;60.78;100673.03;105682;1253;74759;-60
2023/02/17 09:26:51;;;;;;;14.30;7.60;;;;;;;3.49;60.90;100680.77;105870;1250;71413;-61
2023/02/17 09:29:19;;;;;;;13.20;6.60;;;;;;;3.46;60.89;100684.05;105736;1251;72782;-60
2023/02/17 09:31:48;;;;;;;19.90;14.10;;;;;;;3.47;60.85;100684.85;105780;1250;62281;-61
2023/02/17 09:34:16;;;;;;;14.40;5.90;;;;;;;3.51;60.78;100684.15;105654;1251;61033;-61
2023/02/17 09:36:45;;;;;;;13.30;6.10;;;;;;;3.57;60.78;100683.71;105691;1253;66165;-62
2023/02/17 09:39:13;;;;;;;10.70;5.50;;;;;;;3.60;60.67;100687.58;105641;1253;71494;-60
2023/02/17 09:41:46;;;;;;;13.70;6.80;;;;;;;3.60;60.86;100688.11;105665;1253;65243;-60
2023/02/17 09:44:51;;;;;;;14.60;6.60;;;;;;;3.61;60.81;100685.24;105719;1253;60527;-61
2023/02/17 09:47:41;;;;;;;16.20;7.90;;;;;;;3.66;60.75;100683.98;105226;1251;60442;-62
2023/02/17 09:50:27;;;;;;;12.40;6.20;;;;;;;3.70;60.56;100685.89;105653;1250;66026;-62
2023/02/17 09:52:58;;;;;;;22.00;7.90;;;;;;;3.68;60.33;100684.77;105417;1251;62591;-62
2023/02/17 09:55:41;;;;;;;17.60;7.20;;;;;;;3.67;60.58;100682.58;105594;1254;63674;-60
2023/02/17 09:58:22;;;;;;;14.60;7.10;;;;;;;3.67;60.59;100678.56;105442;1250;62191;-60
2023/02/17 10:00:53;;;;;;;17.90;8.20;;;;;;;3.68;60.61;100681.13;105923;1250;60473;-61
2023/02/17 10:03:29;;;;;;;16.70;8.10;;;;;;;3.68;60.71;100680.05;105844;1250;64921;-61
2023/02/17 10:06:14;;;;;;;18.90;8.70;;;;;;;3.68;60.66;100677.11;106156;1250;62353;-60
2023/02/17 10:09:02;;;;;;;18.00;10.90;;;;;;;3.67;60.42;100678.21;105775;1250;65468;-60
2023/02/17 10:11:33;;;;;;;24.70;10.10;;;;;;;3.72;60.11;100679.41;105734;1250;60452;-61
2023/02/17 10:14:05;;;;;;;32.50;23.40;;;;;;;3.78;59.92;100683.27;105726;1250;60549;-60
2023/02/17 10:16:40;;;;;;;18.90;10.40;;;;;;;3.83;59.79;100683.02;105736;1250;65309;-61
2023/02/17 10:19:31;;;;;;;23.60;11.00;;;;;;;3.84;59.86;100683.16;105674;1253;61837;-57
2023/02/17 10:22:17;;;;;;;17.30;9.80;;;;;;;3.83;59.84;100684.42;105780;1251;64688;-62
2023/02/17 10:24:45;;;;;;;17.50;10.40;;;;;;;3.83;59.67;100681.82;105660;1251;61640;-58
2023/02/17 10:27:27;;;;;;;33.60;24.20;;;;;;;3.83;59.81;100681.79;105574;1250;61296;-60
2023/02/17 10:30:08;;;;;;;20.20;12.00;;;;;;;3.85;59.66;100680.16;109486;1250;66119;-61
2023/02/17 10:33:11;;;;;;;25.70;13.10;;;;;;;3.87;59.76;100678.85;109464;1249;62349;-61
2023/02/17 10:35:41;;;;;;;23.30;11.30;;;;;;;3.88;59.58;100674.09;109478;1250;65137;-61
2023/02/17 10:38:33;;;;;;;23.40;12.90;;;;;;;3.89;59.42;100670.08;106912;1250;60497;-60
2023/02/17 10:41:02;;;;;;;25.20;11.30;;;;;;;3.90;59.40;100673.31;105631;1250;60454;-60
2023/02/17 10:43:31;;;;;;;17.70;9.70;;;;;;;3.92;59.38;100677.05;105674;1252;65797;-60
2023/02/17 10:46:00;;;;;;;30.00;20.80;;;;;;;3.93;59.28;100675.12;105784;1253;70186;-60
2023/02/17 10:48:29;;;;;;;31.60;19.70;;;;;;;3.94;59.29;100675.42;105732;1251;63891;-60
2023/02/17 10:50:58;;;;;;;12.90;6.00;;;;;;;4.02;59.18;100674.67;105659;1253;62192;-60
2023/02/17 10:53:38;;;;;;;24.10;17.30;;;;;;;4.11;59.08;100677.00;105837;1251;60553;-60
2023/02/17 10:56:18;;;;;;;21.20;9.50;;;;;;;4.22;58.92;100677.18;105818;1253;66214;-60
2023/02/17 10:58:50;;;;;;;24.10;17.20;;;;;;;4.32;58.94;100676.35;105763;1255;61368;-60
2023/02/17 11:01:18;;;;;;;12.50;6.30;;;;;;;4.39;58.78;100676.02;105741;1254;64995;-60
2023/02/17 11:03:47;;;;;;;22.50;15.90;;;;;;;4.43;58.53;100676.84;105824;1253;60430;-61
2023/02/17 11:06:18;;;;;;;18.40;7.30;;;;;;;4.46;58.47;100676.66;105712;1250;60558;-60
2023/02/17 11:08:55;;;;;;;14.40;7.90;;;;;;;4.46;58.40;100675.98;106130;1250;66180;-61
2023/02/17 11:11:30;;;;;;;13.90;6.40;;;;;;;4.45;58.42;100675.36;105662;1251;62641;-61
2023/02/17 11:14:05;;;;;;;19.20;14.10;;;;;;;4.46;58.47;100679.80;106282;1251;73604;-60
2023/02/17 11:16:35;;;;;;;13.80;6.40;;;;;;;4.48;58.33;100680.27;105816;1250;60540;-60
2023/02/17 11:19:06;;;;;;;15.50;8.10;;;;;;;4.49;58.36;100682.65;105821;1254;60460;-62
2023/02/17 11:21:36;;;;;;;23.00;15.50;;;;;;;4.48;58.28;100680.27;105885;1254;66216;-60
2023/02/17 11:24:04;;;;;;;15.50;7.60;;;;;;;4.48;58.40;100675.23;105718;1251;71263;-60
2023/02/17 11:26:34;;;;;;;15.50;8.30;;;;;;;4.49;58.33;100676.55;105911;1251;64922;-60
2023/02/17 11:29:21;;;;;;;21.80;16.80;;;;;;;4.50;58.06;100675.80;105867;1250;60498;-60
2023/02/17 11:32:06;;;;;;;15.50;7.50;;;;;;;4.46;57.79;100677.70;105711;1251;60535;-53
2023/02/17 11:34:39;;;;;;;16.00;6.40;;;;;;;4.40;58.02;100682.20;106357;1250;66201;-49
2023/02/17 11:37:10;;;;;;;20.10;13.90;;;;;;;4.36;58.26;100682.41;106049;1250;62886;-52
2023/02/17 11:39:48;;;;;;;20.00;6.00;;;;;;;4.33;58.18;100685.13;105758;1251;63932;-51